createdAt,value
2019-05-19T00:00:21.781Z,20.00
2019-05-19T00:01:19.205Z,20.00
2019-05-19T00:02:21.777Z,20.00
2019-05-19T00:03:19.184Z,20.00
2019-05-19T00:04:19.174Z,20.00
2019-05-19T00:05:19.276Z,20.00
2019-05-19T00:06:19.163Z,20.00
2019-05-19T00:07:19.141Z,20.00
2019-05-19T00:08:19.129Z,20.00
2019-05-19T00:09:19.124Z,20.00
2019-05-19T00:10:19.474Z,20.00
2019-05-19T00:11:19.905Z,20.00
2019-05-19T00:12:19.094Z,20.00
2019-05-19T00:13:19.075Z,20.00
2019-05-19T00:14:19.094Z,20.00
2019-05-19T00:15:19.059Z,16.00
2019-05-19T00:16:19.175Z,20.00
2019-05-19T00:17:19.125Z,20.00
2019-05-19T00:18:19.026Z,20.00
2019-05-19T00:19:26.870Z,20.00
2019-05-19T00:20:19.994Z,20.00
2019-05-19T00:21:19.505Z,20.00
2019-05-19T00:22:18.974Z,20.00
2019-05-19T00:23:19.013Z,20.00
2019-05-19T00:24:18.974Z,20.00
2019-05-19T00:25:18.953Z,20.00
2019-05-19T00:26:18.942Z,20.00
2019-05-19T00:27:18.925Z,20.00
2019-05-19T00:28:18.913Z,20.00
2019-05-19T00:29:18.944Z,20.00
2019-05-19T00:30:18.903Z,20.00
2019-05-19T00:31:18.883Z,20.00
2019-05-19T00:32:18.872Z,20.00
2019-05-19T00:33:18.854Z,20.00
2019-05-19T00:34:18.848Z,20.00
2019-05-19T00:35:18.885Z,20.00
2019-05-19T00:36:19.678Z,16.00
2019-05-19T00:37:18.813Z,20.00
2019-05-19T00:38:18.803Z,16.00
2019-05-19T00:39:18.793Z,20.00
2019-05-19T00:40:19.062Z,20.00
2019-05-19T00:41:18.804Z,20.00
2019-05-19T00:42:18.753Z,20.00
2019-05-19T00:43:18.743Z,20.00
2019-05-19T00:44:18.759Z,20.00
2019-05-19T00:45:18.725Z,20.00
2019-05-19T00:46:18.720Z,20.00
2019-05-19T00:47:19.772Z,20.00
2019-05-19T00:48:18.702Z,20.00
2019-05-19T00:49:18.685Z,20.00
2019-05-19T00:50:18.672Z,20.00
2019-05-19T00:51:18.672Z,16.00
2019-05-19T00:52:18.651Z,20.00
2019-05-19T00:53:18.672Z,20.00
2019-05-19T00:54:18.912Z,16.00
2019-05-19T00:55:18.621Z,20.00
2019-05-19T00:56:18.602Z,20.00
2019-05-19T00:57:18.592Z,20.00
2019-05-19T00:58:18.607Z,20.00
2019-05-19T00:59:18.601Z,20.00
2019-05-19T01:00:18.555Z,20.00
2019-05-19T01:01:18.673Z,20.00
2019-05-19T01:02:18.551Z,20.00
2019-05-19T01:03:18.533Z,20.00
2019-05-19T01:04:18.521Z,20.00
2019-05-19T01:05:20.701Z,20.00
2019-05-19T01:06:18.491Z,20.00
2019-05-19T01:07:18.762Z,20.00
2019-05-19T01:08:18.482Z,20.00
2019-05-19T01:09:18.511Z,20.00
2019-05-19T01:10:18.451Z,20.00
2019-05-19T01:11:18.491Z,20.00
2019-05-19T01:12:18.432Z,20.00
2019-05-19T01:13:18.412Z,20.00
2019-05-19T01:14:18.698Z,20.00
2019-05-19T01:15:18.392Z,20.00
2019-05-19T01:16:18.382Z,20.00
2019-05-19T01:17:18.412Z,20.00
2019-05-19T01:18:18.362Z,20.00
2019-05-19T01:19:18.357Z,20.00
2019-05-19T01:20:18.341Z,20.00
2019-05-19T01:21:18.352Z,20.00
2019-05-19T01:22:18.322Z,20.00
2019-05-19T01:23:18.390Z,20.00
2019-05-19T01:24:18.308Z,20.00
2019-05-19T01:25:18.294Z,20.00
2019-05-19T01:26:18.290Z,20.00
2019-05-19T01:27:18.560Z,20.00
2019-05-19T01:28:18.269Z,20.00
2019-05-19T01:29:18.280Z,20.00
2019-05-19T01:30:20.806Z,20.00
2019-05-19T01:31:18.242Z,20.00
2019-05-19T01:32:18.211Z,20.00
2019-05-19T01:33:18.201Z,16.00
2019-05-19T01:34:18.480Z,20.00
2019-05-19T01:35:18.226Z,20.00
2019-05-19T01:36:18.178Z,20.00
2019-05-19T01:37:18.160Z,16.00
2019-05-19T01:38:18.152Z,20.00
2019-05-19T01:39:18.151Z,20.00
2019-05-19T01:40:18.150Z,16.00
2019-05-19T01:41:18.200Z,16.00
2019-05-19T01:42:18.824Z,20.00
2019-05-19T01:43:18.100Z,16.00
2019-05-19T01:44:18.091Z,20.00
2019-05-19T01:45:18.079Z,20.00
2019-05-19T01:46:19.354Z,16.00
2019-05-19T01:47:18.109Z,20.00
2019-05-19T01:48:18.050Z,20.00
2019-05-19T01:49:18.037Z,20.00
2019-05-19T01:50:18.742Z,20.00
2019-05-19T01:51:18.017Z,20.00
2019-05-19T01:52:18.529Z,20.00
2019-05-19T01:53:18.029Z,20.00
2019-05-19T01:54:17.979Z,20.00
2019-05-19T01:55:17.977Z,16.00
2019-05-19T01:56:17.973Z,20.00
2019-05-19T01:57:17.964Z,20.00
2019-05-19T01:58:17.960Z,20.00
2019-05-19T01:59:17.969Z,20.00
2019-05-19T02:01:33.695Z,20.00
2019-05-19T02:02:33.662Z,20.00
2019-05-19T02:03:33.652Z,20.00
2019-05-19T02:04:33.953Z,20.00
2019-05-19T02:05:33.632Z,20.00
2019-05-19T02:06:33.611Z,20.00
2019-05-19T02:07:33.628Z,20.00
2019-05-19T02:08:33.590Z,20.00
2019-05-19T02:09:33.582Z,20.00
2019-05-19T02:10:34.422Z,20.00
2019-05-19T02:11:33.856Z,20.00
2019-05-19T02:12:33.562Z,20.00
2019-05-19T02:13:33.530Z,20.00
2019-05-19T02:14:33.528Z,20.00
2019-05-19T02:15:33.513Z,20.00
2019-05-19T02:16:34.012Z,20.00
2019-05-19T02:17:33.497Z,20.00
2019-05-19T02:18:33.794Z,20.00
2019-05-19T02:19:33.473Z,16.00
2019-05-19T02:20:33.997Z,16.00
2019-05-19T02:21:33.469Z,20.00
2019-05-19T02:22:33.525Z,20.00
2019-05-19T02:23:33.429Z,16.00
2019-05-19T02:24:33.424Z,20.00
2019-05-19T02:25:33.728Z,20.00
2019-05-19T02:26:33.409Z,20.00
2019-05-19T02:27:33.389Z,20.00
2019-05-19T02:28:33.420Z,20.00
2019-05-19T02:29:33.394Z,20.00
2019-05-19T02:30:33.357Z,20.00
2019-05-19T02:31:33.358Z,20.00
2019-05-19T02:32:33.363Z,20.00
2019-05-19T02:33:35.881Z,20.00
2019-05-19T02:34:33.360Z,20.00
2019-05-19T02:35:33.299Z,20.00
2019-05-19T02:36:33.302Z,20.00
2019-05-19T02:37:33.562Z,20.00
2019-05-19T02:38:33.280Z,20.00
2019-05-19T02:39:33.258Z,20.00
2019-05-19T02:40:33.288Z,20.00
2019-05-19T02:41:33.239Z,20.00
2019-05-19T02:42:33.243Z,20.00
2019-05-19T02:43:33.218Z,20.00
2019-05-19T02:44:33.213Z,20.00
2019-05-19T02:45:33.198Z,20.00
2019-05-19T02:46:33.227Z,20.00
2019-05-19T02:47:33.178Z,20.00
2019-05-19T02:48:33.169Z,20.00
2019-05-19T02:49:33.436Z,20.00
2019-05-19T02:50:50.492Z,20.00
2019-05-19T02:51:34.225Z,20.00
2019-05-19T02:52:33.122Z,20.00
2019-05-19T02:53:33.107Z,20.00
2019-05-19T02:54:33.879Z,24.00
2019-05-19T02:55:33.088Z,20.00
2019-05-19T02:56:33.081Z,20.00
2019-05-19T02:57:33.139Z,24.00
2019-05-19T02:58:33.068Z,20.00
2019-05-19T02:59:33.048Z,24.00
2019-05-19T03:00:33.038Z,24.00
2019-05-19T03:01:33.417Z,20.00
2019-05-19T03:02:33.028Z,20.00
2019-05-19T03:03:33.040Z,20.00
2019-05-19T03:04:33.498Z,20.00
2019-05-19T03:05:32.987Z,28.00
2019-05-19T03:06:32.987Z,24.00
2019-05-19T03:07:32.974Z,28.00
2019-05-19T03:08:32.969Z,32.00
2019-05-19T03:09:32.990Z,32.00
2019-05-19T03:10:32.944Z,36.00
2019-05-19T03:11:32.928Z,40.00
2019-05-19T03:12:32.907Z,44.00
2019-05-19T03:13:33.383Z,48.00
2019-05-19T03:14:32.905Z,52.00
2019-05-19T03:15:32.924Z,56.00
2019-05-19T03:16:32.893Z,60.00
2019-05-19T03:17:32.868Z,68.00
2019-05-19T03:18:32.848Z,72.00
2019-05-19T03:19:32.856Z,76.00
2019-05-19T03:20:33.106Z,84.00
2019-05-19T03:21:32.845Z,88.00
2019-05-19T03:22:32.805Z,84.00
2019-05-19T03:23:32.795Z,88.00
2019-05-19T03:24:32.788Z,96.00
2019-05-19T03:25:32.793Z,100.00
2019-05-19T03:26:32.804Z,108.00
2019-05-19T03:27:33.282Z,112.00
2019-05-19T03:28:32.745Z,120.00
2019-05-19T03:29:32.728Z,124.00
2019-05-19T03:30:32.738Z,136.00
2019-05-19T03:31:32.744Z,140.00
2019-05-19T03:32:32.725Z,148.00
2019-05-19T03:33:33.021Z,156.00
2019-05-19T03:34:32.704Z,168.00
2019-05-19T03:35:32.799Z,176.00
2019-05-19T03:36:32.655Z,192.00
2019-05-19T03:37:32.645Z,204.00
2019-05-19T03:38:32.635Z,216.00
2019-05-19T03:39:32.662Z,228.00
2019-05-19T03:40:32.922Z,244.00
2019-05-19T03:41:32.613Z,260.00
2019-05-19T03:42:32.595Z,276.00
2019-05-19T03:43:32.584Z,288.00
2019-05-19T03:44:32.572Z,308.00
2019-05-19T03:45:32.608Z,324.00
2019-05-19T03:46:32.543Z,340.00
2019-05-19T03:47:32.824Z,360.00
2019-05-19T03:48:32.523Z,376.00
2019-05-19T03:49:32.518Z,392.00
2019-05-19T03:50:32.503Z,408.00
2019-05-19T03:51:32.542Z,428.00
2019-05-19T03:52:32.483Z,448.00
2019-05-19T03:53:32.473Z,464.00
2019-05-19T03:54:32.754Z,480.00
2019-05-19T03:55:32.453Z,500.00
2019-05-19T03:56:32.446Z,520.00
2019-05-19T03:57:32.482Z,540.00
2019-05-19T03:58:32.422Z,560.00
2019-05-19T03:59:32.413Z,584.00
2019-05-19T04:00:32.403Z,604.00
2019-05-19T04:01:32.696Z,632.00
2019-05-19T04:02:32.382Z,660.00
2019-05-19T04:03:32.422Z,688.00
2019-05-19T04:04:32.372Z,720.00
2019-05-19T04:05:32.349Z,756.00
2019-05-19T04:06:32.342Z,792.00
2019-05-19T04:07:32.322Z,828.00
2019-05-19T04:08:32.332Z,860.00
2019-05-19T04:09:32.335Z,896.00
2019-05-19T04:10:32.296Z,928.00
2019-05-19T04:11:32.292Z,952.00
2019-05-19T04:12:32.285Z,972.00
2019-05-19T04:13:32.542Z,992.00
2019-05-19T04:14:32.243Z,1008.00
2019-05-19T04:15:32.311Z,1020.00
2019-05-19T04:16:32.222Z,1040.00
2019-05-19T04:17:32.221Z,1060.00
2019-05-19T04:18:32.206Z,1080.00
2019-05-19T04:19:32.195Z,1108.00
2019-05-19T04:20:32.182Z,1136.00
2019-05-19T04:21:47.455Z,1164.00
2019-05-19T04:22:33.161Z,1192.00
2019-05-19T04:23:32.165Z,1220.00
2019-05-19T04:24:32.141Z,1252.00
2019-05-19T04:25:32.410Z,1276.00
2019-05-19T04:26:32.118Z,1304.00
2019-05-19T04:27:32.141Z,1332.00
2019-05-19T04:28:32.090Z,1360.00
2019-05-19T04:29:32.080Z,1392.00
2019-05-19T04:30:32.081Z,1428.00
2019-05-19T04:31:32.070Z,1476.00
2019-05-19T04:32:32.134Z,1520.00
2019-05-19T04:33:32.109Z,1572.00
2019-05-19T04:34:32.030Z,1628.00
2019-05-19T04:35:32.073Z,1680.00
2019-05-19T04:36:32.030Z,1744.00
2019-05-19T04:37:32.351Z,1812.00
2019-05-19T04:38:32.170Z,1880.00
2019-05-19T04:39:32.132Z,1956.00
2019-05-19T04:40:31.960Z,2024.00
2019-05-19T04:41:31.955Z,2092.00
2019-05-19T04:42:31.951Z,2156.00
2019-05-19T04:43:32.045Z,2220.00
2019-05-19T04:44:32.008Z,2272.00
2019-05-19T04:45:31.968Z,2308.00
2019-05-19T04:46:31.922Z,2332.00
2019-05-19T04:47:31.898Z,2320.00
2019-05-19T04:48:31.888Z,2288.00
2019-05-19T04:49:32.177Z,2264.00
2019-05-19T04:50:31.878Z,2240.00
2019-05-19T04:51:31.889Z,2208.00
2019-05-19T04:52:31.849Z,2176.00
2019-05-19T04:53:31.837Z,2152.00
2019-05-19T04:54:31.818Z,2124.00
2019-05-19T04:55:31.810Z,2096.00
2019-05-19T04:56:32.098Z,2068.00
2019-05-19T04:57:32.600Z,2040.00
2019-05-19T04:58:31.776Z,2032.00
2019-05-19T04:59:31.767Z,2028.00
2019-05-19T05:00:31.755Z,2040.00
2019-05-19T05:01:31.748Z,2076.00
2019-05-19T05:02:31.745Z,2108.00
2019-05-19T05:03:32.041Z,2136.00
2019-05-19T05:04:31.729Z,2172.00
2019-05-19T05:05:31.706Z,2208.00
2019-05-19T05:06:31.688Z,2256.00
2019-05-19T05:07:31.709Z,2304.00
2019-05-19T05:08:31.688Z,2356.00
2019-05-19T05:09:31.710Z,2408.00
2019-05-19T05:10:31.657Z,2468.00
2019-05-19T05:11:31.644Z,2568.00
2019-05-19T05:12:31.632Z,2660.00
2019-05-19T05:13:31.617Z,2760.00
2019-05-19T05:14:31.609Z,2852.00
2019-05-19T05:15:32.336Z,2968.00
2019-05-19T05:16:31.885Z,3100.00
2019-05-19T05:17:31.577Z,3236.00
2019-05-19T05:18:31.581Z,3356.00
2019-05-19T05:19:31.573Z,3412.00
2019-05-19T05:20:31.546Z,3516.00
2019-05-19T05:21:31.596Z,3676.00
2019-05-19T05:22:31.529Z,3896.00
2019-05-19T05:23:31.796Z,4088.00
2019-05-19T05:24:31.508Z,4276.00
2019-05-19T05:25:31.507Z,4444.00
2019-05-19T05:26:31.494Z,4620.00
2019-05-19T05:27:31.515Z,4840.00
2019-05-19T05:28:31.457Z,5008.00
2019-05-19T05:29:31.450Z,4984.00
2019-05-19T05:30:31.455Z,4924.00
2019-05-19T05:31:31.434Z,5104.00
2019-05-19T05:32:31.426Z,5168.00
2019-05-19T05:33:31.483Z,5208.00
2019-05-19T05:34:31.434Z,5312.00
2019-05-19T05:35:31.395Z,5376.00
2019-05-19T05:36:31.665Z,5476.00
2019-05-19T05:37:31.366Z,5620.00
2019-05-19T05:38:31.355Z,5688.00
2019-05-19T05:39:31.375Z,5748.00
2019-05-19T05:40:31.335Z,5804.00
2019-05-19T05:41:31.317Z,5712.00
2019-05-19T05:42:32.086Z,5532.00
2019-05-19T05:43:31.295Z,5300.00
2019-05-19T05:44:31.302Z,5092.00
2019-05-19T05:45:31.331Z,5136.00
2019-05-19T05:46:31.264Z,4852.00
2019-05-19T05:47:31.254Z,5372.00
2019-05-19T05:48:31.535Z,5668.00
2019-05-19T05:49:31.232Z,5720.00
2019-05-19T05:50:31.216Z,5920.00
2019-05-19T05:51:33.024Z,6164.00
2019-05-19T05:52:38.622Z,6416.00
2019-05-19T05:53:32.184Z,6576.00
2019-05-19T05:54:31.175Z,6676.00
2019-05-19T05:55:31.185Z,6736.00
2019-05-19T05:56:31.163Z,6796.00
2019-05-19T05:57:31.257Z,6840.00
2019-05-19T05:58:31.135Z,6856.00
2019-05-19T05:59:31.131Z,6864.00
2019-05-19T06:00:31.395Z,6804.00
2019-05-19T06:01:31.157Z,6768.00
2019-05-19T06:02:31.084Z,6728.00
2019-05-19T06:03:31.245Z,6648.00
2019-05-19T06:04:31.068Z,6320.00
2019-05-19T06:05:31.055Z,5904.00
2019-05-19T06:06:31.843Z,5812.00
2019-05-19T06:07:31.041Z,5432.00
2019-05-19T06:08:31.664Z,5116.00
2019-05-19T06:09:31.073Z,5480.00
2019-05-19T06:10:31.003Z,5152.00
2019-05-19T06:11:30.993Z,5640.00
2019-05-19T06:12:31.284Z,5276.00
2019-05-19T06:13:30.973Z,5092.00
2019-05-19T06:14:31.733Z,5352.00
2019-05-19T06:15:31.004Z,5384.00
2019-05-19T06:16:30.944Z,5576.00
2019-05-19T06:17:31.630Z,5616.00
2019-05-19T06:18:30.922Z,5496.00
2019-05-19T06:19:31.626Z,5500.00
2019-05-19T06:20:30.897Z,5460.00
2019-05-19T06:21:30.923Z,5776.00
2019-05-19T06:22:31.624Z,5972.00
2019-05-19T06:23:30.913Z,5880.00
2019-05-19T06:24:32.133Z,5904.00
2019-05-19T06:25:31.535Z,5524.00
2019-05-19T06:26:30.834Z,5416.00
2019-05-19T06:27:30.874Z,5152.00
2019-05-19T06:28:30.813Z,5116.00
2019-05-19T06:29:30.809Z,5148.00
2019-05-19T06:30:30.800Z,5176.00
2019-05-19T06:31:31.272Z,5228.00
2019-05-19T06:32:30.772Z,5256.00
2019-05-19T06:33:30.801Z,5308.00
2019-05-19T06:34:30.744Z,5332.00
2019-05-19T06:35:30.742Z,5540.00
2019-05-19T06:36:30.723Z,6252.00
2019-05-19T06:37:30.730Z,7368.00
2019-05-19T06:38:31.103Z,7564.00
2019-05-19T06:39:30.752Z,7676.00
2019-05-19T06:40:30.691Z,7624.00
2019-05-19T06:41:30.672Z,7568.00
2019-05-19T06:42:30.794Z,7524.00
2019-05-19T06:43:30.662Z,7464.00
2019-05-19T06:44:30.674Z,7440.00
2019-05-19T06:45:31.020Z,7452.00
2019-05-19T06:46:30.612Z,7424.00
2019-05-19T06:47:30.602Z,7428.00
2019-05-19T06:48:30.602Z,7448.00
2019-05-19T06:49:30.590Z,7484.00
2019-05-19T06:50:34.827Z,7516.00
2019-05-19T06:51:30.902Z,7528.00
2019-05-19T06:52:30.562Z,7496.00
2019-05-19T06:53:30.543Z,7488.00
2019-05-19T06:54:30.550Z,7496.00
2019-05-19T06:55:30.547Z,7500.00
2019-05-19T06:56:30.513Z,7500.00
2019-05-19T06:57:30.544Z,7516.00
2019-05-19T06:58:30.774Z,7508.00
2019-05-19T06:59:30.479Z,7520.00
2019-05-19T07:00:30.472Z,7512.00
2019-05-19T07:01:30.475Z,7556.00
2019-05-19T07:02:30.481Z,7732.00
2019-05-19T07:03:30.483Z,7924.00
2019-05-19T07:04:30.421Z,8136.00
2019-05-19T07:05:30.412Z,8280.00
2019-05-19T07:06:30.403Z,8504.00
2019-05-19T07:07:30.421Z,8892.00
2019-05-19T07:08:30.392Z,8984.00
2019-05-19T07:09:30.465Z,8852.00
2019-05-19T07:10:30.362Z,8840.00
2019-05-19T07:11:30.637Z,8556.00
2019-05-19T07:12:30.340Z,8820.00
2019-05-19T07:13:30.331Z,8584.00
2019-05-19T07:14:30.322Z,8544.00
2019-05-19T07:15:30.361Z,8012.00
2019-05-19T07:16:30.312Z,9828.00
2019-05-19T07:17:30.322Z,10612.00
2019-05-19T07:18:30.272Z,8348.00
2019-05-19T07:19:30.271Z,7968.00
2019-05-19T07:20:30.850Z,10088.00
2019-05-19T07:21:30.292Z,11048.00
2019-05-19T07:22:30.231Z,7860.00
2019-05-19T07:23:30.223Z,8032.00
2019-05-19T07:24:30.211Z,7424.00
2019-05-19T07:25:30.210Z,10032.00
2019-05-19T07:26:30.191Z,11952.00
2019-05-19T07:27:30.212Z,9872.00
2019-05-19T07:28:30.182Z,8036.00
2019-05-19T07:29:30.441Z,9156.00
2019-05-19T07:30:30.166Z,9572.00
2019-05-19T07:31:30.144Z,10996.00
2019-05-19T07:32:30.131Z,9312.00
2019-05-19T07:33:30.161Z,9268.00
2019-05-19T07:34:30.133Z,10060.00
2019-05-19T07:35:30.103Z,10232.00
2019-05-19T07:36:30.132Z,10972.00
2019-05-19T07:37:30.074Z,11896.00
2019-05-19T07:38:30.067Z,12796.00
2019-05-19T07:39:30.102Z,14012.00
2019-05-19T07:40:30.042Z,13620.00
2019-05-19T07:41:31.388Z,14308.00
2019-05-19T07:42:30.821Z,13612.00
2019-05-19T07:43:30.828Z,14164.00
2019-05-19T07:44:30.000Z,14216.00
2019-05-19T07:45:30.042Z,14136.00
2019-05-19T07:46:29.987Z,13988.00
2019-05-19T07:47:29.981Z,13668.00
2019-05-19T07:48:29.968Z,13636.00
2019-05-19T07:49:30.789Z,13580.00
2019-05-19T07:50:29.953Z,12920.00
2019-05-19T07:51:29.993Z,13076.00
2019-05-19T07:52:29.924Z,13096.00
2019-05-19T07:53:42.269Z,13028.00
2019-05-19T07:54:30.891Z,12916.00
2019-05-19T07:55:29.883Z,12600.00
2019-05-19T07:56:29.873Z,13244.00
2019-05-19T07:57:31.170Z,13516.00
2019-05-19T07:58:29.855Z,13508.00
2019-05-19T07:59:29.832Z,13556.00
2019-05-19T08:00:29.835Z,13416.00
2019-05-19T08:01:29.828Z,13516.00
2019-05-19T08:02:29.859Z,13324.00
2019-05-19T08:03:29.912Z,13560.00
2019-05-19T08:04:29.792Z,13528.00
2019-05-19T08:05:29.802Z,13572.00
2019-05-19T08:06:29.779Z,13664.00
2019-05-19T08:07:29.753Z,13688.00
2019-05-19T08:08:29.782Z,13616.00
2019-05-19T08:09:29.763Z,13744.00
2019-05-19T08:10:31.003Z,13740.00
2019-05-19T08:11:29.729Z,13868.00
2019-05-19T08:12:29.702Z,13908.00
2019-05-19T08:13:29.682Z,14000.00
2019-05-19T08:14:29.693Z,14008.00
2019-05-19T08:15:29.714Z,14012.00
2019-05-19T08:16:29.685Z,14016.00
2019-05-19T08:17:29.987Z,13968.00
2019-05-19T08:18:29.634Z,13948.00
2019-05-19T08:19:29.623Z,13976.00
2019-05-19T08:20:29.612Z,14204.00
2019-05-19T08:21:29.653Z,14292.00
2019-05-19T08:22:29.593Z,14420.00
2019-05-19T08:23:29.599Z,14460.00
2019-05-19T08:24:30.017Z,14664.00
2019-05-19T08:25:29.630Z,14844.00
2019-05-19T08:26:29.551Z,14840.00
2019-05-19T08:27:29.642Z,14840.00
2019-05-19T08:28:29.536Z,15000.00
2019-05-19T08:29:29.537Z,15020.00
2019-05-19T08:30:29.536Z,15100.00
2019-05-19T08:31:29.550Z,15176.00
2019-05-19T08:32:29.494Z,15228.00
2019-05-19T08:33:30.229Z,15236.00
2019-05-19T08:34:29.473Z,15244.00
2019-05-19T08:35:29.454Z,15236.00
2019-05-19T08:36:29.550Z,15260.00
2019-05-19T08:37:29.734Z,15328.00
2019-05-19T08:38:29.414Z,15288.00
2019-05-19T08:39:29.476Z,15280.00
2019-05-19T08:40:29.481Z,15348.00
2019-05-19T08:41:29.903Z,15380.00
2019-05-19T08:42:29.387Z,15372.00
2019-05-19T08:43:29.379Z,15412.00
2019-05-19T08:44:29.650Z,15480.00
2019-05-19T08:45:29.414Z,15348.00
2019-05-19T08:46:29.334Z,15520.00
2019-05-19T08:47:29.325Z,15516.00
2019-05-19T08:48:29.338Z,15696.00
2019-05-19T08:49:29.986Z,15464.00
2019-05-19T08:50:29.293Z,15720.00
2019-05-19T08:51:29.356Z,15624.00
2019-05-19T08:52:29.286Z,15772.00
2019-05-19T08:53:29.255Z,15800.00
2019-05-19T08:54:29.245Z,15952.00
2019-05-19T08:55:29.342Z,16040.00
2019-05-19T08:56:30.809Z,15940.00
2019-05-19T08:57:29.284Z,15856.00
2019-05-19T08:58:29.215Z,15984.00
2019-05-19T08:59:29.377Z,16032.00
2019-05-19T09:00:29.188Z,16164.00
2019-05-19T09:01:29.177Z,16196.00
2019-05-19T09:02:29.445Z,16204.00
2019-05-19T09:03:31.949Z,16224.00
2019-05-19T09:04:30.945Z,16328.00
2019-05-19T09:05:29.128Z,16296.00
2019-05-19T09:06:29.131Z,16424.00
2019-05-19T09:07:29.121Z,16520.00
2019-05-19T09:08:29.946Z,16924.00
2019-05-19T09:09:29.148Z,16948.00
2019-05-19T09:10:29.078Z,16880.00
2019-05-19T09:11:29.076Z,17120.00
2019-05-19T09:12:29.065Z,17216.00
2019-05-19T09:13:29.048Z,17248.00
2019-05-19T09:14:29.327Z,17312.00
2019-05-19T09:15:29.096Z,17248.00
2019-05-19T09:16:29.026Z,17440.00
2019-05-19T09:17:29.546Z,17632.00
2019-05-19T09:18:29.008Z,17632.00
2019-05-19T09:19:28.986Z,17536.00
2019-05-19T09:20:28.977Z,17344.00
2019-05-19T09:21:29.084Z,17536.00
2019-05-19T09:22:28.995Z,17504.00
2019-05-19T09:23:28.968Z,17664.00
2019-05-19T09:24:30.988Z,17920.00
2019-05-19T09:25:28.934Z,17856.00
2019-05-19T09:26:29.307Z,18240.00
2019-05-19T09:27:29.798Z,18400.00
2019-05-19T09:28:28.930Z,18464.00
2019-05-19T09:29:28.936Z,17952.00
2019-05-19T09:30:28.868Z,17824.00
2019-05-19T09:31:29.461Z,18688.00
2019-05-19T09:32:29.459Z,19648.00
2019-05-19T09:33:29.159Z,19488.00
2019-05-19T09:34:28.849Z,19392.00
2019-05-19T09:35:28.818Z,19200.00
2019-05-19T09:36:28.810Z,19072.00
2019-05-19T09:37:28.807Z,18816.00
2019-05-19T09:38:28.788Z,18880.00
2019-05-19T09:39:28.818Z,19168.00
2019-05-19T09:40:28.781Z,19104.00
2019-05-19T09:41:28.769Z,19264.00
2019-05-19T09:42:28.788Z,19168.00
2019-05-19T09:43:28.759Z,18656.00
2019-05-19T09:44:28.792Z,18752.00
2019-05-19T09:45:28.773Z,18784.00
2019-05-19T09:46:29.066Z,18944.00
2019-05-19T09:47:28.699Z,19520.00
2019-05-19T09:48:28.696Z,19648.00
2019-05-19T09:49:28.673Z,19616.00
2019-05-19T09:50:28.681Z,19872.00
2019-05-19T09:51:28.710Z,20128.00
2019-05-19T09:52:29.407Z,19936.00
2019-05-19T09:53:28.661Z,19520.00
2019-05-19T09:54:28.639Z,19488.00
2019-05-19T09:55:28.610Z,19936.00
2019-05-19T09:56:28.600Z,20704.00
2019-05-19T09:57:28.643Z,21344.00
2019-05-19T09:58:28.571Z,21472.00
2019-05-19T09:59:28.579Z,21536.00
2019-05-19T10:00:28.569Z,21408.00
2019-05-19T10:01:29.254Z,21248.00
2019-05-19T10:02:28.544Z,20768.00
2019-05-19T10:03:28.614Z,20672.00
2019-05-19T10:04:28.519Z,20384.00
2019-05-19T10:05:29.645Z,20512.00
2019-05-19T10:06:28.522Z,20224.00
2019-05-19T10:07:28.483Z,21152.00
2019-05-19T10:08:28.480Z,21568.00
2019-05-19T10:09:28.499Z,21408.00
2019-05-19T10:10:28.452Z,10500.00
2019-05-19T10:11:28.452Z,22016.00
2019-05-19T10:12:29.444Z,22208.00
2019-05-19T10:13:28.430Z,22912.00
2019-05-19T10:14:28.425Z,23008.00
2019-05-19T10:15:28.489Z,22880.00
2019-05-19T10:16:29.252Z,23616.00
2019-05-19T10:17:28.383Z,23072.00
2019-05-19T10:18:28.364Z,22624.00
2019-05-19T10:19:28.372Z,22656.00
2019-05-19T10:20:28.351Z,22848.00
2019-05-19T10:21:29.226Z,22560.00
2019-05-19T10:22:28.324Z,22208.00
2019-05-19T10:23:28.355Z,21984.00
2019-05-19T10:24:28.644Z,21696.00
2019-05-19T10:25:28.312Z,21600.00
2019-05-19T10:26:28.376Z,21536.00
2019-05-19T10:27:29.247Z,21472.00
2019-05-19T10:28:29.864Z,21536.00
2019-05-19T10:29:28.394Z,21728.00
2019-05-19T10:30:28.936Z,21760.00
2019-05-19T10:31:28.234Z,21888.00
2019-05-19T10:32:29.126Z,21952.00
2019-05-19T10:33:28.274Z,22080.00
2019-05-19T10:34:28.244Z,22208.00
2019-05-19T10:35:28.195Z,22208.00
2019-05-19T10:36:28.208Z,22304.00
2019-05-19T10:37:28.230Z,22528.00
2019-05-19T10:38:28.186Z,22784.00
2019-05-19T10:39:28.195Z,22720.00
2019-05-19T10:40:28.157Z,22560.00
2019-05-19T10:41:28.227Z,22624.00
2019-05-19T10:42:28.413Z,22848.00
2019-05-19T10:43:28.115Z,22784.00
2019-05-19T10:44:28.114Z,10456.00
2019-05-19T10:45:29.365Z,17760.00
2019-05-19T10:46:28.974Z,16448.00
2019-05-19T10:47:28.076Z,24288.00
2019-05-19T10:48:28.476Z,24224.00
2019-05-19T10:49:28.047Z,24032.00
2019-05-19T10:50:28.053Z,23680.00
2019-05-19T10:51:28.069Z,23648.00
2019-05-19T10:52:28.042Z,23648.00
2019-05-19T10:53:28.319Z,23776.00
2019-05-19T10:54:28.002Z,24192.00
2019-05-19T10:55:36.216Z,24416.00
2019-05-19T10:56:29.123Z,24672.00
2019-05-19T10:57:28.465Z,25312.00
2019-05-19T10:58:27.999Z,26528.00
2019-05-19T10:59:27.967Z,28416.00
2019-05-19T11:00:28.041Z,30880.00
2019-05-19T11:01:27.928Z,34272.00
2019-05-19T11:02:27.962Z,39360.00
2019-05-19T11:03:28.490Z,43712.00
2019-05-19T11:04:28.484Z,46624.00
2019-05-19T11:05:28.517Z,51424.00
2019-05-19T11:06:28.366Z,56256.00
2019-05-19T11:07:28.010Z,57536.00
2019-05-19T11:08:30.329Z,60608.00
2019-05-19T11:09:27.848Z,64896.00
2019-05-19T11:10:28.605Z,68992.00
2019-05-19T11:11:27.830Z,70144.00
2019-05-19T11:12:27.862Z,73536.00
2019-05-19T11:13:27.810Z,74080.00
2019-05-19T11:14:27.846Z,73952.00
2019-05-19T11:15:27.802Z,72480.00
2019-05-19T11:16:27.772Z,69632.00
2019-05-19T11:17:27.778Z,65280.00
2019-05-19T11:18:27.760Z,62240.00
2019-05-19T11:19:27.850Z,63520.00
2019-05-19T11:20:27.773Z,64640.00
2019-05-19T11:21:27.730Z,63232.00
2019-05-19T11:22:27.723Z,63776.00
2019-05-19T11:23:27.749Z,64448.00
2019-05-19T11:24:27.753Z,65920.00
2019-05-19T11:25:34.140Z,68192.00
2019-05-19T11:26:28.752Z,69792.00
2019-05-19T11:27:27.662Z,70976.00
2019-05-19T11:28:27.652Z,73184.00
2019-05-19T11:29:27.646Z,72352.00
2019-05-19T11:30:27.747Z,70560.00
2019-05-19T11:31:27.642Z,70240.00
2019-05-19T11:32:28.141Z,70688.00
2019-05-19T11:33:27.603Z,71808.00
2019-05-19T11:34:27.607Z,71200.00
2019-05-19T11:35:27.594Z,71136.00
2019-05-19T11:36:27.589Z,68864.00
2019-05-19T11:37:27.983Z,68448.00
2019-05-19T11:38:27.692Z,69504.00
2019-05-19T11:39:27.555Z,71456.00
2019-05-19T11:40:27.534Z,72512.00
2019-05-19T11:41:27.716Z,73888.00
2019-05-19T11:42:28.133Z,73920.00
2019-05-19T11:43:27.507Z,70688.00
2019-05-19T11:44:27.814Z,73888.00
2019-05-19T11:45:27.486Z,77312.00
2019-05-19T11:46:27.481Z,75872.00
2019-05-19T11:47:27.485Z,74080.00
2019-05-19T11:48:27.488Z,75872.00
2019-05-19T11:49:27.465Z,79840.00
2019-05-19T11:50:27.503Z,79616.00
2019-05-19T11:51:27.582Z,76608.00
2019-05-19T11:52:28.257Z,74016.00
2019-05-19T11:53:28.234Z,74784.00
2019-05-19T11:54:27.459Z,75648.00
2019-05-19T11:55:27.437Z,74016.00
2019-05-19T11:56:27.459Z,72736.00
2019-05-19T11:57:34.586Z,71040.00
2019-05-19T11:58:27.347Z,72192.00
2019-05-19T11:59:28.317Z,65664.00
2019-05-19T12:00:27.337Z,57184.00
2019-05-19T12:01:27.317Z,73728.00
2019-05-19T12:02:27.423Z,76960.00
2019-05-19T12:03:27.586Z,76480.00
2019-05-19T12:04:27.332Z,71168.00
2019-05-19T12:05:27.309Z,68128.00
2019-05-19T12:06:38.660Z,67488.00
2019-05-19T12:07:28.299Z,75456.00
2019-05-19T12:08:27.281Z,76096.00
2019-05-19T12:09:27.247Z,75264.00
2019-05-19T12:10:27.252Z,73472.00
2019-05-19T12:11:27.227Z,13900.00
2019-05-19T12:12:27.779Z,11468.00